Monterrey Airport, Mexico

12:36 PM EST on February 07, 2016 (GMT -0500)
PrepaUDEM Unidad Fundadores | | Change Station
CLOSE
Current Station
Personal Weather Station
Location: Escobedo, NUEVO LEON
Elevation: 1630 ft
Nearby Weather Stations

Elev 1630 ft 25.77 °N, 100.30 °W | Updated 44 seconds ago

Mostly Cloudy
Mostly Cloudy
61.4 °F
Feels Like 61.4 °F
N
1.0
Wind Variable Wind from SE
Gusts 1.0 mph

Today
High -- | Low -- °F
--% Chance of Precip.
Yesterday
High -- | Low -- °F
Precip. -- in
Pressure 30.30 in
Visibility 15.0 miles
Clouds Mostly Cloudy 25000 ft
Dew Point 27 °F
Humidity 27%
Rainfall 0.00 in
Snow Depth Not available.
8:21 AM 7:28 PM
Waning Crescent, 1% visible
METAR MMMY 071647Z 14003KT 15SM BKN250 16/M11 A3030 RMK 8/006
Pressure 30.30 in
Visibility 15.0 miles
Clouds Mostly Cloudy 25000 ft
Dew Point 27 °F
Humidity 27%
Rainfall 0.00 in
Snow Depth Not available.
8:21 AM 7:28 PM
Waning Crescent, 1% visible
METAR MMMY 071647Z 14003KT 15SM BKN250 16/M11 A3030 RMK 8/006

10-Day Weather Forecast

No radar image for this location.
×

Almanac

Astronomy

Feb. 07, 2016 Rise Set
Actual Time
Civil Twilight
Nautical Twilight
Astronomical Twilight
Moon
Length of Visible Light
Length of Day
Tomorrow will be .
, % of the Moon is Illuminated

Today's Extremes

Country Highs Country Lows

Community

WunderPhotos

Upload Photos

1,891,244 photos uploaded!

WunderBlog® & News

Nearby

Air Quality

  Air Quality AQ Index Pollutant
Not available.

Snow Depth

Station Depth Elevation

Earthquake Activity

City Distance Mag. Time & Date
Minimum magnitude displayed is 2.5.

Coastal Water Temperatures

Place Temperature

Stations

Nearby Weather Stations

Station Location Temp. Windchill Dew Point Humidity Wind Precip. Elev Updated Type